Time;durP1;ratioP1;P1;durP2;ratioP2;P2;SDS_P1;SDS_P2;PMS_P1;PMS_P2;Temp;Humidity;BMP_temperature;BMP_pressure;BME280_temperature;BME280_humidity;BME280_pressure;Samples;Min_cycle;Max_cycle;Signal;HPM_P1;HPM_P2
2021/10/09 00:01:51;;;;;;;;;22.50;20.00;;;;;15.76;68.04;101845.03;4879267;29;45742;-87
2021/10/09 00:04:16;;;;;;;;;19.75;17.00;;;;;15.48;67.96;101795.16;4906094;28;45726;-86
2021/10/09 00:06:46;;;;;;;;;19.75;17.00;;;;;15.68;68.20;101828.91;4918963;28;45813;-89
2021/10/09 00:12:23;;;;;;;;;19.00;18.00;;;;;15.78;68.00;101843.13;4917636;28;46899;-88
2021/10/09 00:14:48;;;;;;;;;26.00;19.00;;;;;15.51;68.41;101794.91;4917497;28;45735;-88
2021/10/09 00:20:35;;;;;;;;;21.50;18.00;;;;;15.56;68.36;101807.81;4938602;28;45694;-88
2021/10/09 00:23:03;;;;;;;;;19.75;17.50;;;;;15.65;68.31;101823.84;4961556;28;45725;-88
2021/10/09 00:25:29;;;;;;;;;19.25;16.25;;;;;15.66;68.33;101822.88;4961304;28;45788;-88
2021/10/09 00:27:54;;;;;;;;;22.25;17.00;;;;;15.49;68.39;101802.13;4961917;28;45690;-88
2021/10/09 00:30:20;;;;;;;;;18.00;16.25;;;;;15.69;68.63;101824.47;4960599;28;45787;-88
2021/10/09 00:36:08;;;;;;;;;17.75;17.00;;;;;15.65;68.34;101831.78;4962220;28;45721;-88
2021/10/09 00:38:33;;;;;;;;;19.75;17.50;;;;;15.67;68.37;101829.00;4946768;28;45970;-88
2021/10/09 00:40:59;;;;;;;;;20.75;19.25;;;;;15.60;68.20;101818.03;4962542;28;46866;-88
2021/10/09 00:43:24;;;;;;;;;19.75;18.00;;;;;15.72;68.35;101846.22;4941630;28;47196;-89
2021/10/09 00:45:56;;;;;;;;;21.50;19.75;;;;;15.62;68.32;101826.72;4954387;28;45595;-89
2021/10/09 00:51:45;;;;;;;;;17.75;17.75;;;;;15.64;68.18;101838.03;5055055;28;45753;-87
2021/10/09 00:54:12;;;;;;;;;19.75;18.00;;;;;15.67;68.29;101847.50;5055531;28;46046;-87
2021/10/09 00:56:40;;;;;;;;;19.25;18.25;;;;;15.67;68.65;101836.94;5055810;28;45659;-88
2021/10/09 00:59:08;;;;;;;;;19.75;16.25;;;;;15.37;68.28;101795.06;5055525;28;45655;-86
2021/10/09 01:01:34;;;;;;;;;17.75;16.75;;;;;15.55;68.48;101820.16;5055561;28;46842;-88
2021/10/09 01:07:24;;;;;;;;;20.00;17.50;;;;;15.55;68.76;101827.28;5055160;28;45722;-89
2021/10/09 01:09:50;;;;;;;;;19.75;18.25;;;;;15.59;68.40;101834.03;5055002;28;45626;-87
2021/10/09 01:13:03;;;;;;;;;;;;;;;;;;;;;
2021/10/09 01:22:28;;;;;;;;;19.50;18.00;;;;;15.50;69.08;101838.13;5014967;28;45731;-89
2021/10/09 01:24:53;;;;;;;;;18.50;18.25;;;;;15.24;68.74;101802.19;5013353;28;45906;-86
2021/10/09 01:27:19;;;;;;;;;18.75;17.75;;;;;15.49;68.56;101834.63;5013226;28;45669;-89
2021/10/09 01:29:45;;;;;;;;;18.25;17.50;;;;;15.39;68.82;101820.41;5013023;28;45730;-89
2021/10/09 01:32:10;;;;;;;;;24.00;21.75;;;;;15.39;68.52;101817.75;4996511;28;45577;-88
2021/10/09 01:37:57;;;;;;;;;18.50;17.00;;;;;15.23;68.84;101800.47;5012552;28;45644;-87
2021/10/09 01:40:23;;;;;;;;;19.75;18.25;;;;;15.25;68.67;101810.00;4996707;28;45813;-87
2021/10/09 01:42:49;;;;;;;;;17.75;16.75;;;;;15.33;68.85;101820.84;5013455;28;45643;-88
2021/10/09 01:45:14;;;;;;;;;19.25;18.00;;;;;15.29;68.90;101821.16;5013082;28;45525;-87
2021/10/09 01:47:41;;;;;;;;;19.25;18.25;;;;;15.33;68.83;101834.03;5015639;28;46032;-87
2021/10/09 01:50:08;;;;;;;;;18.50;16.25;;;;;14.96;68.95;101771.63;5020873;28;45725;-85
2021/10/09 01:52:34;;;;;;;;;21.50;19.50;;;;;15.09;68.91;101798.84;5013161;28;45687;-87
2021/10/09 01:54:59;;;;;;;;;20.25;18.25;;;;;14.93;68.97;101775.31;5006067;28;47574;-89
2021/10/09 01:57:25;;;;;;;;;19.00;18.75;;;;;15.23;68.95;101827.72;5053579;28;47087;-87
2021/10/09 01:59:50;;;;;;;;;20.00;17.00;;;;;15.22;69.15;101828.72;5056090;28;45696;-87
2021/10/09 02:02:15;;;;;;;;;20.50;20.00;;;;;15.10;68.86;101817.22;5054308;28;45764;-88
2021/10/09 02:08:06;;;;;;;;;22.25;20.00;;;;;15.10;69.31;101819.00;5049376;28;46154;-88
2021/10/09 02:10:34;;;;;;;;;19.50;18.25;;;;;14.96;69.20;101798.84;5054355;28;45939;-87
2021/10/09 02:13:04;;;;;;;;;22.75;19.00;;;;;15.08;69.16;101816.47;5054378;28;45798;-87
2021/10/09 02:15:37;;;;;;;;;24.00;20.75;;;;;14.90;69.13;101786.09;5054263;28;46534;-88
2021/10/09 02:25:56;;;;;;;;;21.00;21.00;;;;;15.05;69.24;101811.41;5067758;28;45764;-87
2021/10/09 02:28:22;;;;;;;;;20.00;19.00;;;;;14.75;69.43;101766.06;5067251;28;45692;-88
2021/10/09 02:30:48;;;;;;;;;20.75;19.25;;;;;14.77;69.20;101768.59;5063367;28;45538;-85
2021/10/09 02:33:14;;;;;;;;;22.00;19.25;;;;;14.57;69.04;101735.72;5066069;28;45876;-85
2021/10/09 02:35:40;;;;;;;;;24.25;21.25;;;;;14.90;69.22;101804.56;5066618;28;46578;-85
2021/10/09 02:38:09;;;;;;;;;27.00;21.00;;;;;14.98;69.43;101815.44;5068024;28;45649;-87
2021/10/09 02:40:37;;;;;;;;;25.75;20.25;;;;;14.87;69.34;101802.16;5057812;28;45465;-83
2021/10/09 02:43:03;;;;;;;;;21.00;19.75;;;;;14.87;69.07;101798.66;5057835;28;45664;-87
2021/10/09 02:45:29;;;;;;;;;23.25;22.00;;;;;14.94;69.55;101818.41;5057943;28;46635;-86
2021/10/09 02:47:59;;;;;;;;;20.25;19.00;;;;;14.85;69.16;101811.09;5057418;28;46146;-86
2021/10/09 02:50:24;;;;;;;;;25.50;23.25;;;;;14.49;69.48;101745.94;5057083;28;45613;-88
2021/10/09 02:52:50;;;;;;;;;20.75;19.50;;;;;14.88;69.60;101814.41;5057397;28;45649;-85
2021/10/09 02:55:19;;;;;;;;;22.50;21.50;;;;;14.86;69.75;101813.66;5055934;28;47350;-88
2021/10/09 02:57:46;;;;;;;;;20.75;19.00;;;;;14.58;69.59;101776.94;5057085;28;46151;-86
2021/10/09 03:00:13;;;;;;;;;20.25;19.00;;;;;14.73;69.63;101806.69;5057086;28;45644;-85
2021/10/09 03:02:38;;;;;;;;;26.50;22.50;;;;;14.66;69.51;101799.22;5056868;28;45837;-89
2021/10/09 03:08:25;;;;;;;;;22.00;21.75;;;;;14.67;69.86;101814.09;5054030;28;45721;-88
2021/10/09 03:10:55;;;;;;;;;26.50;22.25;;;;;14.65;69.84;101815.97;5039953;28;45631;-89
2021/10/09 03:13:21;;;;;;;;;21.25;19.25;;;;;14.10;69.62;101733.66;5056824;28;45529;-89
2021/10/09 03:15:47;;;;;;;;;26.50;23.75;;;;;14.24;69.57;101755.50;5056784;28;47771;-89
2021/10/09 03:18:12;;;;;;;;;22.00;22.00;;;;;14.15;70.02;101742.09;5060296;28;47717;-89
2021/10/09 03:20:39;;;;;;;;;21.75;21.00;;;;;14.27;70.02;101770.25;5061252;28;45604;-87
2021/10/09 03:23:05;;;;;;;;;24.50;22.00;;;;;14.33;70.04;101777.75;5080203;27;45661;-88
2021/10/09 03:25:30;;;;;;;;;26.25;24.00;;;;;14.26;69.73;101776.47;5064319;28;46388;-90
2021/10/09 03:27:56;;;;;;;;;26.00;24.00;;;;;14.22;70.00;101770.56;5061704;28;47317;-89
2021/10/09 03:30:21;;;;;;;;;28.50;20.50;;;;;14.45;70.05;101816.50;5079100;28;45667;-90
2021/10/09 03:32:46;;;;;;;;;16.50;15.25;;;;;14.16;70.16;101764.84;5069083;28;45572;-88
2021/10/09 03:38:35;;;;;;;;;28.75;25.00;;;;;14.05;70.14;101768.22;5068598;28;45802;-87
2021/10/09 03:41:10;;;;;;;;;24.00;21.00;;;;;13.98;70.30;101766.94;5067238;28;45412;-86
2021/10/09 03:43:49;;;;;;;;;24.00;23.25;;;;;14.00;70.18;101777.38;5062074;28;45519;-89
2021/10/09 03:46:26;;;;;;;;;22.50;19.50;;;;;13.96;70.28;101768.00;5059996;28;46502;-89
2021/10/09 03:54:06;;;;;;;;;24.75;21.25;;;;;14.19;70.43;101812.97;5061667;28;45721;-87
2021/10/09 03:56:31;;;;;;;;;25.75;23.25;;;;;14.05;70.32;101794.56;5076466;28;47498;-87
2021/10/09 03:58:57;;;;;;;;;28.50;24.75;;;;;13.87;70.27;101766.84;5059329;28;47827;-87
2021/10/09 04:01:22;;;;;;;;;29.00;24.25;;;;;13.69;70.58;101746.97;5062995;28;45633;-87
2021/10/09 04:03:48;;;;;;;;;28.00;24.25;;;;;13.81;70.40;101757.53;5063109;28;45568;-89
2021/10/09 04:06:13;;;;;;;;;32.00;27.00;;;;;13.63;70.40;101732.41;5066010;28;47475;-90
2021/10/09 04:08:39;;;;;;;;;26.00;25.25;;;;;13.79;70.54;101754.16;5072348;28;45479;-89
2021/10/09 04:11:04;;;;;;;;;31.00;25.25;;;;;13.63;70.79;101736.81;5078446;28;45949;-89
2021/10/09 04:13:29;;;;;;;;;27.50;24.25;;;;;13.52;70.31;101707.72;5076777;28;45197;-87
2021/10/09 04:15:55;;;;;;;;;30.75;26.00;;;;;13.88;70.82;101785.16;5072282;28;45513;-89
2021/10/09 04:18:20;;;;;;;;;26.25;24.00;;;;;13.78;70.83;101770.03;5058089;28;45505;-88
2021/10/09 04:20:46;;;;;;;;;24.00;23.75;;;;;13.87;70.99;101786.09;5055366;28;45669;-88
2021/10/09 04:23:11;;;;;;;;;25.00;25.00;;;;;13.69;70.84;101760.13;5055375;28;45715;-88
2021/10/09 04:25:37;;;;;;;;;28.25;24.75;;;;;13.88;70.83;101784.31;5058161;28;45601;-87
2021/10/09 04:28:02;;;;;;;;;27.00;25.00;;;;;13.96;70.93;101805.72;5055661;28;47312;-88
2021/10/09 04:30:28;;;;;;;;;31.00;29.75;;;;;13.79;70.70;101783.13;5056504;28;45521;-90
2021/10/09 04:32:53;;;;;;;;;31.25;27.50;;;;;13.76;70.96;101785.97;5057053;28;45669;-89
2021/10/09 04:38:40;;;;;;;;;28.50;26.00;;;;;13.92;71.32;101808.69;5057161;28;45523;-88
2021/10/09 04:41:06;;;;;;;;;31.00;26.25;;;;;13.51;70.72;101743.72;5055496;28;45750;-89
2021/10/09 04:43:32;;;;;;;;;34.50;28.25;;;;;13.77;71.15;101787.63;5059711;28;45965;-89
2021/10/09 04:45:57;;;;;;;;;30.25;27.00;;;;;13.84;71.09;101801.25;5070060;28;46516;-89
2021/10/09 04:48:23;;;;;;;;;31.50;29.75;;;;;13.37;71.11;101723.59;5068656;28;46975;-89
2021/10/09 04:50:48;;;;;;;;;30.25;27.00;;;;;13.29;71.21;101711.84;5073052;28;45217;-91
2021/10/09 04:53:13;;;;;;;;;30.50;27.75;;;;;13.76;71.33;101804.41;5078000;28;45606;-88
2021/10/09 04:55:39;;;;;;;;;36.50;31.00;;;;;13.75;71.23;101802.72;5064120;28;47497;-88
2021/10/09 04:58:04;;;;;;;;;38.25;32.75;;;;;13.42;71.17;101755.72;5066174;28;46143;-90
2021/10/09 05:00:30;;;;;;;;;36.75;32.50;;;;;13.41;71.10;101745.28;5066211;28;45601;-88
2021/10/09 05:02:55;;;;;;;;;28.75;27.25;;;;;13.38;71.16;101742.84;5061865;28;45566;-88
2021/10/09 05:08:42;;;;;;;;;36.00;29.00;;;;;13.61;71.27;101786.09;5055208;28;45737;-88
2021/10/09 05:11:10;;;;;;;;;34.00;31.00;;;;;13.22;71.33;101735.09;5056467;28;45769;-89
2021/10/09 05:13:35;;;;;;;;;29.00;27.50;;;;;13.29;71.70;101746.06;5057023;28;45606;-90
2021/10/09 05:16:02;;;;;;;;;33.50;28.25;;;;;13.56;71.46;101793.47;5057082;28;48463;-91
2021/10/09 05:18:28;;;;;;;;;32.00;29.75;;;;;13.49;71.55;101789.56;5056623;28;46471;-89
2021/10/09 05:20:53;;;;;;;;;31.25;29.00;;;;;13.30;71.52;101753.88;5057923;28;46011;-90
2021/10/09 05:23:19;;;;;;;;;31.50;28.25;;;;;13.19;71.37;101734.44;5056359;28;45503;-88
2021/10/09 05:25:44;;;;;;;;;33.50;30.50;;;;;13.54;71.38;101798.84;5074193;28;47366;-91
2021/10/09 05:28:16;;;;;;;;;32.25;28.25;;;;;13.41;71.37;101774.22;5058878;28;45684;-89
2021/10/09 05:30:47;;;;;;;;;36.50;30.25;;;;;13.38;71.54;101775.28;5058484;28;45558;-88
2021/10/09 05:39:19;;;;;;;;;28.50;25.00;;;;;13.35;71.73;101772.00;5067163;28;46068;-86
2021/10/09 05:41:45;;;;;;;;;35.00;31.50;;;;;13.48;71.63;101795.75;5061008;28;45744;-90
2021/10/09 05:44:10;;;;;;;;;29.50;24.75;;;;;13.22;71.88;101757.94;5056812;28;45718;-89
2021/10/09 05:46:36;;;;;;;;;37.00;31.00;;;;;13.42;71.60;101803.09;5056656;28;46528;-84
2021/10/09 05:49:01;;;;;;;;;33.25;28.75;;;;;13.17;71.57;101766.09;5053558;28;46143;-84
2021/10/09 05:51:33;;;;;;;;;30.75;28.75;;;;;13.15;72.05;101767.16;5060636;28;45750;-85
2021/10/09 06:31:07;;;;;;;;;31.50;29.75;;;;;12.94;72.40;101817.53;5062038;28;45577;-90
2021/10/09 06:59:34;;;;;;;;;32.75;30.75;;;;;12.95;72.54;101858.69;5037370;28;45721;-89
2021/10/09 07:01:59;;;;;;;;;40.75;33.50;;;;;12.84;72.68;101839.22;5036837;28;45676;-90
2021/10/09 07:04:25;;;;;;;;;35.50;32.75;;;;;12.80;72.24;101832.44;5019555;28;47990;-88
2021/10/09 07:06:52;;;;;;;;;36.25;33.75;;;;;12.85;72.44;101844.34;5036490;28;45391;-91
2021/10/09 07:09:17;;;;;;;;;31.00;27.00;;;;;12.70;72.65;101823.41;5036685;28;45709;-87
2021/10/09 07:11:43;;;;;;;;;33.75;31.50;;;;;13.03;72.43;101879.22;5041927;28;46362;-89
2021/10/09 07:14:08;;;;;;;;;37.25;30.25;;;;;12.93;72.58;101852.66;5024261;28;46118;-88
2021/10/09 07:16:33;;;;;;;;;38.50;32.75;;;;;13.04;72.68;101881.78;5024340;28;46140;-88
2021/10/09 07:19:00;;;;;;;;;36.00;31.00;;;;;12.97;72.51;101862.03;5036830;28;45565;-88
2021/10/09 07:24:47;;;;;;;;;36.75;33.25;;;;;13.09;72.40;101894.66;5035438;28;45618;-87
2021/10/09 07:27:12;;;;;;;;;35.75;31.50;;;;;13.02;72.57;101874.91;5041550;28;45705;-89
2021/10/09 07:29:38;;;;;;;;;38.50;32.25;;;;;12.78;72.60;101831.69;5058762;28;45602;-84
2021/10/09 07:32:05;;;;;;;;;39.75;34.25;;;;;13.09;72.46;101897.28;5057169;28;47495;-89
2021/10/09 07:34:32;;;;;;;;;36.50;33.00;;;;;12.92;72.61;101866.72;5056688;28;48233;-87
2021/10/09 07:36:57;;;;;;;;;32.75;30.25;;;;;12.99;72.65;101868.06;5056546;28;45825;-87
2021/10/09 07:39:22;;;;;;;;;35.25;32.25;;;;;12.90;72.52;101862.53;5056460;28;45663;-90
2021/10/09 07:41:51;;;;;;;;;31.75;27.00;;;;;12.69;72.21;101835.72;5058325;28;46335;-88
2021/10/09 07:44:22;;;;;;;;;35.50;31.75;;;;;13.15;72.83;101909.25;5055930;28;46618;-85
2021/10/09 07:46:48;;;;;;;;;40.00;34.25;;;;;12.86;72.56;101858.38;5056088;28;45634;-87
2021/10/09 07:49:13;;;;;;;;;34.75;31.50;;;;;12.98;72.54;101889.19;5054781;28;45637;-85
2021/10/09 07:55:02;;;;;;;;;38.75;32.75;;;;;12.94;72.62;101880.66;5055758;28;45600;-87
2021/10/09 07:57:28;;;;;;;;;40.25;35.00;;;;;13.20;72.33;101928.25;5054656;28;45808;-82
2021/10/09 07:59:54;;;;;;;;;34.50;30.50;;;;;13.04;72.55;101886.19;5059784;28;45745;-86
2021/10/09 08:02:19;;;;;;;;;36.75;32.75;;;;;12.84;72.24;101857.63;5059661;28;45697;-82
2021/10/09 08:04:45;;;;;;;;;36.25;32.00;;;;;12.88;72.60;101856.50;5058440;28;48301;-84
2021/10/09 08:07:10;;;;;;;;;39.50;35.00;;;;;12.91;72.13;101872.94;5059866;28;45641;-85
2021/10/09 08:09:36;;;;;;;;;37.25;33.50;;;;;13.33;72.20;101935.28;5058855;28;45661;-82
2021/10/09 08:12:02;;;;;;;;;41.25;35.50;;;;;13.18;72.23;101902.00;5058924;28;46463;-82
2021/10/09 08:14:28;;;;;;;;;36.75;31.75;;;;;13.30;72.53;101909.16;5070052;28;46147;-78
2021/10/09 08:16:54;;;;;;;;;42.50;34.00;;;;;13.42;72.27;101926.00;5058481;28;45555;-76
2021/10/09 08:19:19;;;;;;;;;40.50;34.75;;;;;13.44;72.12;101927.56;5060398;28;45514;-77
2021/10/09 08:36:19;;;;;;;;;33.50;32.50;;;;;13.52;72.50;101924.47;5045778;28;46295;-75
2021/10/09 08:38:52;;;;;;;;;43.25;35.00;;;;;13.52;72.43;101919.22;5054700;28;45638;-78
2021/10/09 08:41:18;;;;;;;;;41.00;33.50;;;;;13.58;72.10;101929.34;5054751;28;45645;-77
2021/10/09 08:43:46;;;;;;;;;41.50;35.75;;;;;13.63;71.84;101926.44;5054528;28;45527;-77
2021/10/09 08:46:11;;;;;;;;;39.75;35.75;;;;;13.63;72.17;101914.13;5054367;28;46135;-75
2021/10/09 08:48:43;;;;;;;;;43.75;36.25;;;;;13.67;72.21;101922.66;5054303;28;45602;-79
2021/10/09 08:51:09;;;;;;;;;37.50;33.25;;;;;13.65;72.09;101917.50;5054314;28;45624;-75
2021/10/09 08:53:38;;;;;;;;;36.00;34.50;;;;;13.63;71.70;101906.22;5054646;28;45563;-77
2021/10/09 08:56:03;;;;;;;;;41.75;35.25;;;;;13.67;72.24;101912.97;5054706;28;46263;-76
2021/10/09 08:58:35;;;;;;;;;43.75;37.50;;;;;13.72;72.01;101916.16;5054502;28;45693;-77
2021/10/09 09:40:42;;;;;;;;;38.50;33.00;;;;;14.34;70.99;101915.69;5057184;28;45686;-76
2021/10/09 09:43:09;;;;;;;;;37.50;32.50;;;;;14.33;71.05;101912.22;5057445;28;45702;-77
2021/10/09 09:45:36;;;;;;;;;38.00;34.50;;;;;14.38;71.27;101907.50;5057456;28;45561;-76
2021/10/09 09:48:04;;;;;;;;;35.50;32.25;;;;;14.45;71.36;101910.59;5057582;28;46503;-77
2021/10/09 09:50:30;;;;;;;;;37.50;33.00;;;;;14.48;71.15;101915.66;5057133;28;46492;-76
2021/10/09 09:56:18;;;;;;;;;36.00;31.50;;;;;14.57;71.20;101904.50;5057038;28;45760;-78
2021/10/09 09:58:51;;;;;;;;;38.00;33.25;;;;;14.57;70.63;101883.41;5056890;28;45918;-78
2021/10/09 10:01:17;;;;;;;;;41.25;34.25;;;;;14.60;70.87;101886.66;5056908;28;46533;-77
2021/10/09 10:03:47;;;;;;;;;40.50;34.25;;;;;14.68;70.71;101896.72;5056014;28;45857;-77
2021/10/09 10:06:14;;;;;;;;;34.50;32.50;;;;;14.68;70.63;101883.53;5057224;28;45610;-77
2021/10/09 10:08:41;;;;;;;;;37.00;31.75;;;;;14.69;70.11;101878.13;5056660;28;46351;-75
2021/10/09 10:11:09;;;;;;;;;42.00;33.75;;;;;14.78;70.08;101894.28;5056860;28;46096;-78
2021/10/09 10:13:36;;;;;;;;;39.25;33.25;;;;;14.83;70.12;101887.75;5056094;28;45658;-77
2021/10/09 10:16:08;;;;;;;;;35.00;32.00;;;;;14.88;70.12;101887.44;5055501;28;45680;-78
2021/10/09 10:18:45;;;;;;;;;44.00;34.00;;;;;14.93;70.12;101883.53;5055962;28;45690;-78
2021/10/09 10:21:15;;;;;;;;;39.00;33.25;;;;;14.97;69.92;101884.16;5056175;28;46112;-76
2021/10/09 10:23:43;;;;;;;;;38.25;32.00;;;;;15.01;69.87;101893.53;5055966;28;45834;-77
2021/10/09 10:26:21;;;;;;;;;40.75;34.50;;;;;15.06;69.86;101891.47;5056600;28;45670;-77
2021/10/09 10:29:12;;;;;;;;;37.25;32.00;;;;;15.09;69.87;101878.03;5056484;28;45625;-77
2021/10/09 10:32:08;;;;;;;;;35.25;32.00;;;;;15.03;69.71;101859.97;5053104;27;46120;-78
2021/10/09 10:34:33;;;;;;;;;30.75;28.00;;;;;15.16;69.90;101871.38;5056302;28;45589;-77
2021/10/09 10:37:02;;;;;;;;;32.75;28.25;;;;;15.25;69.87;101883.06;5055599;28;45439;-78
2021/10/09 10:39:39;;;;;;;;;31.75;31.75;;;;;15.26;69.59;101880.34;5055623;28;47342;-79
2021/10/09 10:42:09;;;;;;;;;35.75;32.50;;;;;15.34;69.22;101885.06;5056347;28;46261;-77
2021/10/09 10:45:27;;;;;;;;;34.25;31.00;;;;;15.39;69.20;101885.56;5056745;28;46000;-78
2021/10/09 10:48:05;;;;;;;;;34.75;32.00;;;;;15.46;69.04;101884.19;5055674;28;45837;-79
2021/10/09 10:50:47;;;;;;;;;41.25;35.00;;;;;15.52;69.12;101875.88;5059931;28;47397;-78
2021/10/09 10:53:23;;;;;;;;;35.00;31.25;;;;;15.53;69.23;101877.56;5060883;28;46398;-77
2021/10/09 10:56:08;;;;;;;;;27.75;24.75;;;;;15.61;68.75;101877.00;5059262;28;45829;-78
2021/10/09 10:58:35;;;;;;;;;31.50;27.75;;;;;15.51;68.91;101845.97;5059617;28;45672;-78
2021/10/09 11:01:23;;;;;;;;;28.50;27.00;;;;;15.71;68.53;101870.13;5058392;28;45629;-76
2021/10/09 11:03:56;;;;;;;;;31.75;27.50;;;;;15.75;68.27;101879.50;5056124;28;46057;-75
2021/10/09 11:09:44;;;;;;;;;29.00;23.25;;;;;15.79;67.98;101873.88;5046574;28;45772;-77
2021/10/09 11:12:19;;;;;;;;;30.00;24.25;;;;;15.86;67.68;101872.50;5055976;28;46365;-76
2021/10/09 11:14:45;;;;;;;;;25.75;23.50;;;;;15.91;67.49;101864.22;5055872;28;46365;-76
2021/10/09 11:17:10;;;;;;;;;27.00;26.00;;;;;15.94;67.47;101866.63;5055783;28;45603;-77
2021/10/09 11:19:49;;;;;;;;;31.00;25.00;;;;;16.03;67.21;101865.13;5056633;28;45585;-77
2021/10/09 11:25:42;;;;;;;;;28.50;26.00;;;;;16.14;67.02;101871.28;5055367;28;45669;-77
2021/10/09 11:28:33;;;;;;;;;26.25;22.00;;;;;16.18;66.58;101867.47;5073444;28;45601;-78
2021/10/09 11:30:58;;;;;;;;;23.25;20.75;;;;;16.16;66.35;101863.25;5073590;28;45657;-79
2021/10/09 11:33:26;;;;;;;;;22.25;19.25;;;;;16.26;66.57;101865.09;5073519;28;47333;-76
2021/10/09 11:35:53;;;;;;;;;21.50;19.50;;;;;16.30;66.62;101857.78;5073258;28;48297;-77
2021/10/09 11:41:43;;;;;;;;;23.25;22.75;;;;;16.40;66.24;101850.00;5073526;28;45672;-76
2021/10/09 11:44:21;;;;;;;;;25.25;22.25;;;;;16.48;65.98;101856.38;5073446;28;47323;-78
2021/10/09 11:55:18;;;;;;;;;26.50;22.75;;;;;16.69;65.00;101862.72;5072940;28;45613;-80
2021/10/09 11:57:45;;;;;;;;;21.75;20.00;;;;;16.67;64.70;101846.13;5072571;28;47034;-79
2021/10/09 12:00:29;;;;;;;;;23.25;21.50;;;;;16.75;64.55;101848.16;5053174;28;45706;-76
2021/10/09 12:02:59;;;;;;;;;24.25;23.00;;;;;16.75;64.33;101850.81;5054838;28;45797;-78
2021/10/09 12:05:32;;;;;;;;;23.00;22.00;;;;;16.83;64.49;101852.88;5054295;28;47884;-79
2021/10/09 12:08:19;;;;;;;;;25.50;21.50;;;;;16.87;64.67;101839.28;5054708;28;46209;-80
2021/10/09 12:11:12;;;;;;;;;21.50;21.00;;;;;16.94;64.53;101837.84;5054531;28;45515;-80
2021/10/09 12:13:48;;;;;;;;;29.25;25.00;;;;;17.01;64.30;101838.19;5055153;28;45860;-79
2021/10/09 12:16:21;;;;;;;;;21.00;20.25;;;;;17.01;64.21;101828.44;5054452;28;47324;-78
2021/10/09 12:18:48;;;;;;;;;19.00;17.00;;;;;17.07;64.17;101837.72;5054432;28;47685;-80
2021/10/09 12:21:14;;;;;;;;;23.00;19.50;;;;;17.11;63.53;101836.53;5054627;28;45610;-79
2021/10/09 12:23:40;;;;;;;;;23.25;20.25;;;;;17.09;63.50;101826.06;5054771;28;45745;-82
2021/10/09 12:26:16;;;;;;;;;19.00;18.25;;;;;17.10;63.86;101819.81;5054794;28;46395;-79
2021/10/09 12:29:06;;;;;;;;;22.25;18.25;;;;;17.23;63.81;101826.75;5054712;28;46535;-80
2021/10/09 12:31:34;;;;;;;;;24.75;21.00;;;;;17.25;63.63;101827.47;5054214;28;45601;-77
2021/10/09 12:34:00;;;;;;;;;21.00;18.00;;;;;17.29;62.88;101826.25;5054583;28;45510;-76
2021/10/09 12:36:38;;;;;;;;;17.00;15.75;;;;;17.30;62.84;101826.16;5053794;28;46357;-76
2021/10/09 12:39:21;;;;;;;;;17.50;17.50;;;;;17.32;62.94;101816.28;5054114;28;46163;-77
2021/10/09 12:41:48;;;;;;;;;20.75;19.00;;;;;17.36;62.79;101819.53;5054384;28;45834;-78
2021/10/09 12:44:13;;;;;;;;;19.25;17.50;;;;;17.40;62.49;101819.16;5054094;28;45526;-75
2021/10/09 12:46:38;;;;;;;;;22.75;19.75;;;;;17.45;62.27;101816.13;5053853;28;46301;-77
2021/10/09 12:49:04;;;;;;;;;18.75;17.25;;;;;17.47;62.33;101814.19;5054200;28;45990;-77
2021/10/09 12:51:29;;;;;;;;;21.00;19.50;;;;;17.50;62.51;101812.13;5054539;28;45582;-77
2021/10/09 12:53:56;;;;;;;;;19.75;17.00;;;;;17.54;61.87;101810.09;5053319;28;45725;-77
2021/10/09 12:56:22;;;;;;;;;17.00;17.00;;;;;17.56;62.08;101808.16;5054084;28;46410;-77
2021/10/09 12:58:47;;;;;;;;;21.25;16.25;;;;;17.55;60.94;101802.00;5054261;28;45578;-77
2021/10/09 13:01:13;;;;;;;;;20.50;19.25;;;;;17.61;61.79;101814.78;5053145;28;45468;-75
2021/10/09 13:03:39;;;;;;;;;17.00;16.00;;;;;17.65;61.37;101810.09;5054434;28;45451;-77
2021/10/09 13:06:05;;;;;;;;;16.50;15.50;;;;;17.68;61.25;101803.69;5053281;28;45706;-75
2021/10/09 13:08:30;;;;;;;;;18.75;17.75;;;;;17.70;61.00;101801.78;5053907;28;45799;-76
2021/10/09 13:10:59;;;;;;;;;21.75;17.25;;;;;17.75;60.89;101795.13;5053883;28;45646;-77
2021/10/09 13:13:24;;;;;;;;;20.75;18.25;;;;;17.75;61.06;101788.97;5054792;28;45752;-77
2021/10/09 13:15:49;;;;;;;;;18.00;17.50;;;;;17.83;61.18;101794.47;5057047;28;46365;-77
2021/10/09 13:18:15;;;;;;;;;19.25;17.25;;;;;17.85;60.69;101800.50;5056579;28;46215;-78
2021/10/09 13:20:40;;;;;;;;;18.00;16.75;;;;;17.86;60.62;101796.88;5058037;28;45620;-76
2021/10/09 13:23:05;;;;;;;;;17.50;17.50;;;;;17.90;60.79;101788.56;5055774;28;45931;-76
2021/10/09 13:25:31;;;;;;;;;17.50;17.00;;;;;17.92;60.73;101793.72;5055507;28;47684;-77
2021/10/09 13:27:57;;;;;;;;;19.25;18.00;;;;;17.94;60.88;101794.44;5056382;28;46980;-75
2021/10/09 13:30:23;;;;;;;;;18.75;16.75;;;;;17.94;60.81;101799.72;5056752;28;45495;-74
2021/10/09 13:32:48;;;;;;;;;16.50;16.00;;;;;17.98;60.27;101785.25;5058596;28;45504;-74
2021/10/09 13:35:13;;;;;;;;;18.75;17.25;;;;;18.01;60.01;101795.63;5062796;28;45511;-77
2021/10/09 13:37:53;;;;;;;;;19.50;17.75;;;;;18.01;60.10;101788.50;5061124;28;46044;-77
2021/10/09 13:40:19;;;;;;;;;17.25;16.75;;;;;18.04;60.08;101784.72;5057124;28;45691;-78
2021/10/09 13:42:45;;;;;;;;;18.75;16.75;;;;;18.05;59.87;101781.13;5061594;28;45565;-76
2021/10/09 13:45:10;;;;;;;;;18.50;17.25;;;;;18.11;60.22;101793.03;5058288;28;45498;-77
2021/10/09 13:47:36;;;;;;;;;22.25;18.75;;;;;18.14;59.97;101782.19;5055481;28;45675;-74
2021/10/09 13:50:03;;;;;;;;;17.75;16.25;;;;;18.16;59.40;101781.06;5056342;28;45664;-78
2021/10/09 13:52:29;;;;;;;;;19.75;18.00;;;;;18.16;59.43;101782.88;5054897;28;45629;-76
2021/10/09 13:58:16;;;;;;;;;21.75;18.25;;;;;18.20;59.77;101779.81;5053080;28;45659;-77
2021/10/09 14:00:44;;;;;;;;;19.25;17.75;;;;;18.24;59.19;101781.28;5052987;28;45629;-76
2021/10/09 14:03:09;;;;;;;;;20.00;18.00;;;;;18.26;59.04;101794.38;5053346;28;45526;-77
2021/10/09 14:05:35;;;;;;;;;20.00;18.50;;;;;18.23;59.33;101778.75;5053171;28;47411;-76
2021/10/09 14:08:02;;;;;;;;;21.25;19.75;;;;;18.26;59.40;101781.13;5053083;28;46322;-77
2021/10/09 14:10:28;;;;;;;;;17.25;17.00;;;;;18.27;58.68;101780.16;5053150;28;45684;-78
2021/10/09 14:12:53;;;;;;;;;21.75;18.00;;;;;18.25;59.08;101774.97;5055599;28;45799;-76
2021/10/09 14:15:19;;;;;;;;;18.50;17.25;;;;;18.26;58.90;101774.00;5056663;28;46318;-77
2021/10/09 14:17:45;;;;;;;;;20.00;18.25;;;;;18.27;58.82;101775.69;5056787;28;45704;-77
2021/10/09 14:20:11;;;;;;;;;20.75;20.25;;;;;18.32;58.61;101773.47;5056826;28;45661;-77
2021/10/09 14:22:36;;;;;;;;;18.00;17.00;;;;;18.37;58.47;101771.28;5056897;28;45598;-78
2021/10/09 14:28:23;;;;;;;;;19.25;17.75;;;;;18.35;58.66;101759.13;5056428;28;45816;-76
2021/10/09 14:30:50;;;;;;;;;19.00;18.50;;;;;18.41;58.86;101769.19;5056359;28;46128;-78
2021/10/09 14:33:16;;;;;;;;;20.00;18.25;;;;;18.45;58.37;101775.94;5056653;28;45765;-78
2021/10/09 14:35:42;;;;;;;;;18.75;16.00;;;;;18.40;58.06;101759.56;5056398;28;46355;-75
2021/10/09 14:38:07;;;;;;;;;18.25;18.00;;;;;18.46;58.73;101765.19;5056325;28;45980;-76
2021/10/09 14:40:33;;;;;;;;;20.00;18.00;;;;;18.50;58.54;101772.88;5056384;28;45547;-77
2021/10/09 14:42:58;;;;;;;;;19.25;17.25;;;;;18.51;57.97;101766.63;5056570;28;45786;-76
2021/10/09 14:45:26;;;;;;;;;18.50;17.50;;;;;18.52;57.83;101763.81;5056204;28;45481;-77
2021/10/09 15:01:59;;;;;;;;;18.75;16.50;;;;;18.69;57.48;101759.72;5056027;28;45672;-77
2021/10/09 15:18:09;;;;;;;;;19.75;17.50;;;;;19.50;57.09;101751.59;5055391;28;45586;-76